sensor_id;sensor_type;location;lat;lon;timestamp;pressure;altitude;pressure_sealevel;temperature;humidity
47524;BME280;33253;42.144;25.884;2023-02-12T00:00:32;101599.41;;;-4.34;71.00
47524;BME280;33253;42.144;25.884;2023-02-12T00:02:58;101589.34;;;-4.34;70.97
47524;BME280;33253;42.144;25.884;2023-02-12T00:05:23;101590.38;;;-4.25;70.70
47524;BME280;33253;42.144;25.884;2023-02-12T00:07:49;101610.00;;;-4.23;71.18
47524;BME280;33253;42.144;25.884;2023-02-12T00:10:15;101615.41;;;-4.27;71.58
47524;BME280;33253;42.144;25.884;2023-02-12T00:12:41;101619.81;;;-4.55;73.05
47524;BME280;33253;42.144;25.884;2023-02-12T00:15:06;101612.13;;;-5.07;74.84
47524;BME280;33253;42.144;25.884;2023-02-12T00:17:32;101622.00;;;-5.15;75.89
47524;BME280;33253;42.144;25.884;2023-02-12T00:19:57;101622.91;;;-5.08;76.23
47524;BME280;33253;42.144;25.884;2023-02-12T00:22:23;101591.63;;;-5.17;75.42
47524;BME280;33253;42.144;25.884;2023-02-12T00:24:48;101627.41;;;-5.05;75.32
47524;BME280;33253;42.144;25.884;2023-02-12T00:27:14;101620.94;;;-4.96;75.35
47524;BME280;33253;42.144;25.884;2023-02-12T00:29:40;101479.44;;;-5.65;75.65
47524;BME280;33253;42.144;25.884;2023-02-12T00:32:05;101634.78;;;-4.63;76.27
47524;BME280;33253;42.144;25.884;2023-02-12T00:34:31;101616.75;;;-4.52;76.05
47524;BME280;33253;42.144;25.884;2023-02-12T00:36:56;101617.47;;;-4.46;76.19
47524;BME280;33253;42.144;25.884;2023-02-12T00:39:22;101601.56;;;-4.30;75.46
47524;BME280;33253;42.144;25.884;2023-02-12T00:41:51;101572.25;;;-4.37;74.90
47524;BME280;33253;42.144;25.884;2023-02-12T00:44:20;101598.63;;;-4.12;74.91
47524;BME280;33253;42.144;25.884;2023-02-12T00:46:47;101607.41;;;-4.01;74.22
47524;BME280;33253;42.144;25.884;2023-02-12T00:49:13;101613.66;;;-3.90;75.14
47524;BME280;33253;42.144;25.884;2023-02-12T00:51:38;101591.13;;;-3.88;73.84
47524;BME280;33253;42.144;25.884;2023-02-12T00:54:04;101562.13;;;-3.92;73.48
47524;BME280;33253;42.144;25.884;2023-02-12T00:56:29;101600.94;;;-3.68;73.03
47524;BME280;33253;42.144;25.884;2023-02-12T00:58:55;101590.00;;;-3.76;72.57
47524;BME280;33253;42.144;25.884;2023-02-12T01:01:20;101583.56;;;-3.88;72.58
47524;BME280;33253;42.144;25.884;2023-02-12T01:03:46;101572.44;;;-4.05;73.22
47524;BME280;33253;42.144;25.884;2023-02-12T01:06:11;101577.47;;;-3.98;73.15
47524;BME280;33253;42.144;25.884;2023-02-12T01:08:37;101560.91;;;-3.96;72.78
47524;BME280;33253;42.144;25.884;2023-02-12T01:11:03;101523.31;;;-4.09;71.23
47524;BME280;33253;42.144;25.884;2023-02-12T01:13:31;101567.47;;;-3.82;70.59
47524;BME280;33253;42.144;25.884;2023-02-12T01:16:24;101575.19;;;-3.73;71.17
47524;BME280;33253;42.144;25.884;2023-02-12T01:18:52;101559.31;;;-3.72;72.20
47524;BME280;33253;42.144;25.884;2023-02-12T01:21:23;101538.97;;;-3.74;71.46
47524;BME280;33253;42.144;25.884;2023-02-12T01:23:49;101580.63;;;-3.54;72.65
47524;BME280;33253;42.144;25.884;2023-02-12T01:26:17;101578.75;;;-3.64;71.93
47524;BME280;33253;42.144;25.884;2023-02-12T01:28:44;101588.75;;;-3.80;72.44
47524;BME280;33253;42.144;25.884;2023-02-12T01:31:15;101565.38;;;-3.93;72.74
47524;BME280;33253;42.144;25.884;2023-02-12T01:33:41;101576.97;;;-3.72;72.24
47524;BME280;33253;42.144;25.884;2023-02-12T01:36:08;101556.59;;;-3.66;72.35
47524;BME280;33253;42.144;25.884;2023-02-12T01:38:34;101546.97;;;-3.62;71.94
47524;BME280;33253;42.144;25.884;2023-02-12T01:41:07;101567.81;;;-3.48;71.52
47524;BME280;33253;42.144;25.884;2023-02-12T01:43:34;101511.69;;;-3.69;71.69
47524;BME280;33253;42.144;25.884;2023-02-12T01:46:01;101549.38;;;-3.40;71.76
47524;BME280;33253;42.144;25.884;2023-02-12T01:48:32;101551.81;;;-3.33;71.54
47524;BME280;33253;42.144;25.884;2023-02-12T01:51:00;101507.16;;;-3.64;72.28
47524;BME280;33253;42.144;25.884;2023-02-12T01:53:33;101530.09;;;-3.47;72.04
47524;BME280;33253;42.144;25.884;2023-02-12T01:56:00;101552.38;;;-3.35;71.63
47524;BME280;33253;42.144;25.884;2023-02-12T01:58:30;101570.50;;;-3.23;70.96
47524;BME280;33253;42.144;25.884;2023-02-12T02:01:01;101568.50;;;-3.19;70.35
47524;BME280;33253;42.144;25.884;2023-02-12T02:03:26;101574.66;;;-3.24;70.98
47524;BME280;33253;42.144;25.884;2023-02-12T02:06:00;101562.66;;;-3.34;71.32
47524;BME280;33253;42.144;25.884;2023-02-12T02:08:26;101572.22;;;-3.31;70.85
47524;BME280;33253;42.144;25.884;2023-02-12T02:10:52;101575.97;;;-3.28;70.70
47524;BME280;33253;42.144;25.884;2023-02-12T02:13:18;101576.22;;;-3.41;70.81
47524;BME280;33253;42.144;25.884;2023-02-12T02:16:19;101539.84;;;-3.73;72.93
47524;BME280;33253;42.144;25.884;2023-02-12T02:19:08;101557.34;;;-3.75;73.82
47524;BME280;33253;42.144;25.884;2023-02-12T02:24:45;101562.13;;;-3.92;74.26
47524;BME280;33253;42.144;25.884;2023-02-12T02:27:26;101566.81;;;-3.95;73.91
47524;BME280;33253;42.144;25.884;2023-02-12T02:35:48;101570.41;;;-3.86;74.01
47524;BME280;33253;42.144;25.884;2023-02-12T02:38:41;101576.34;;;-3.93;74.44
47524;BME280;33253;42.144;25.884;2023-02-12T02:41:28;101522.28;;;-4.25;75.01
47524;BME280;33253;42.144;25.884;2023-02-12T02:43:54;101531.28;;;-4.20;75.78
47524;BME280;33253;42.144;25.884;2023-02-12T02:46:30;101562.88;;;-3.93;75.95
47524;BME280;33253;42.144;25.884;2023-02-12T02:49:03;101570.25;;;-3.95;75.54
47524;BME280;33253;42.144;25.884;2023-02-12T02:51:36;101562.88;;;-4.00;75.81
47524;BME280;33253;42.144;25.884;2023-02-12T02:54:11;101536.31;;;-4.20;76.32
47524;BME280;33253;42.144;25.884;2023-02-12T02:56:41;101559.13;;;-4.04;76.31
47524;BME280;33253;42.144;25.884;2023-02-12T02:59:18;101549.97;;;-4.11;76.57
47524;BME280;33253;42.144;25.884;2023-02-12T03:02:11;101545.09;;;-4.09;77.07
47524;BME280;33253;42.144;25.884;2023-02-12T03:04:42;101501.81;;;-4.35;77.05
47524;BME280;33253;42.144;25.884;2023-02-12T03:07:13;101533.28;;;-4.17;77.61
47524;BME280;33253;42.144;25.884;2023-02-12T03:09:48;101532.19;;;-4.19;78.04
47524;BME280;33253;42.144;25.884;2023-02-12T03:12:24;101539.53;;;-4.14;78.52
47524;BME280;33253;42.144;25.884;2023-02-12T03:15:02;101523.72;;;-4.20;78.80
47524;BME280;33253;42.144;25.884;2023-02-12T03:17:36;101516.94;;;-4.28;79.34
47524;BME280;33253;42.144;25.884;2023-02-12T03:20:07;101489.47;;;-4.48;79.95
47524;BME280;33253;42.144;25.884;2023-02-12T03:22:38;101532.78;;;-4.29;80.25
47524;BME280;33253;42.144;25.884;2023-02-12T03:27:40;101489.53;;;-4.70;80.32
47524;BME280;33253;42.144;25.884;2023-02-12T03:30:07;101518.47;;;-4.59;80.81
47524;BME280;33253;42.144;25.884;2023-02-12T03:35:16;101504.84;;;-4.68;82.27
47524;BME280;33253;42.144;25.884;2023-02-12T03:40:37;101498.31;;;-4.59;82.54
47524;BME280;33253;42.144;25.884;2023-02-12T03:48:07;101507.22;;;-4.32;81.03
47524;BME280;33253;42.144;25.884;2023-02-12T03:53:15;101500.56;;;-4.39;80.79
47524;BME280;33253;42.144;25.884;2023-02-12T03:55:42;101527.72;;;-4.29;81.23
47524;BME280;33253;42.144;25.884;2023-02-12T03:58:15;101504.25;;;-4.59;82.34
47524;BME280;33253;42.144;25.884;2023-02-12T04:00:43;101531.91;;;-4.37;82.01
47524;BME280;33253;42.144;25.884;2023-02-12T04:03:09;101521.44;;;-4.33;81.42
47524;BME280;33253;42.144;25.884;2023-02-12T04:05:35;101538.09;;;-4.12;80.11
47524;BME280;33253;42.144;25.884;2023-02-12T04:08:09;101548.16;;;-4.04;80.01
47524;BME280;33253;42.144;25.884;2023-02-12T04:17:03;101541.81;;;-3.70;79.44
47524;BME280;33253;42.144;25.884;2023-02-12T04:19:41;101550.03;;;-3.57;78.78
47524;BME280;33253;42.144;25.884;2023-02-12T04:31:06;101553.66;;;-3.39;78.04
47524;BME280;33253;42.144;25.884;2023-02-12T04:36:29;101552.22;;;-3.37;78.27
47524;BME280;33253;42.144;25.884;2023-02-12T04:38:59;101554.22;;;-3.42;78.37
47524;BME280;33253;42.144;25.884;2023-02-12T04:41:27;101557.44;;;-3.59;78.18
47524;BME280;33253;42.144;25.884;2023-02-12T04:43:53;101567.00;;;-3.63;79.66
47524;BME280;33253;42.144;25.884;2023-02-12T04:46:19;101568.28;;;-3.67;79.64
47524;BME280;33253;42.144;25.884;2023-02-12T04:48:53;101531.00;;;-3.69;79.25
47524;BME280;33253;42.144;25.884;2023-02-12T04:51:19;101570.72;;;-3.52;79.19
47524;BME280;33253;42.144;25.884;2023-02-12T04:53:45;101529.47;;;-3.83;80.80
47524;BME280;33253;42.144;25.884;2023-02-12T04:56:11;101570.06;;;-3.59;80.01
47524;BME280;33253;42.144;25.884;2023-02-12T04:58:38;101572.53;;;-3.51;79.57
47524;BME280;33253;42.144;25.884;2023-02-12T05:01:03;101557.19;;;-3.53;80.41
47524;BME280;33253;42.144;25.884;2023-02-12T05:03:29;101571.22;;;-3.48;80.51
47524;BME280;33253;42.144;25.884;2023-02-12T05:05:54;101562.44;;;-3.51;79.77
47524;BME280;33253;42.144;25.884;2023-02-12T05:08:20;101563.66;;;-3.48;79.78
47524;BME280;33253;42.144;25.884;2023-02-12T05:10:45;101579.47;;;-3.42;80.11
47524;BME280;33253;42.144;25.884;2023-02-12T05:13:11;101581.84;;;-3.43;80.65
47524;BME280;33253;42.144;25.884;2023-02-12T05:15:38;101581.06;;;-3.35;79.60
47524;BME280;33253;42.144;25.884;2023-02-12T05:18:03;101593.81;;;-3.26;79.74
47524;BME280;33253;42.144;25.884;2023-02-12T05:20:29;101590.88;;;-3.22;78.97
47524;BME280;33253;42.144;25.884;2023-02-12T05:22:54;101597.34;;;-3.17;79.11
47524;BME280;33253;42.144;25.884;2023-02-12T05:25:21;101602.75;;;-3.14;78.91
47524;BME280;33253;42.144;25.884;2023-02-12T05:27:47;101585.78;;;-3.15;78.17
47524;BME280;33253;42.144;25.884;2023-02-12T05:30:12;101597.91;;;-2.96;78.31
47524;BME280;33253;42.144;25.884;2023-02-12T05:32:38;101549.53;;;-3.15;77.08
47524;BME280;33253;42.144;25.884;2023-02-12T05:35:04;101601.03;;;-2.83;76.92
47524;BME280;33253;42.144;25.884;2023-02-12T05:37:29;101594.91;;;-2.85;76.06
47524;BME280;33253;42.144;25.884;2023-02-12T05:39:55;101602.25;;;-2.79;76.22
47524;BME280;33253;42.144;25.884;2023-02-12T05:42:21;101603.00;;;-2.80;75.87
47524;BME280;33253;42.144;25.884;2023-02-12T05:44:46;101587.38;;;-2.92;75.96
47524;BME280;33253;42.144;25.884;2023-02-12T05:47:12;101617.09;;;-2.82;76.21
47524;BME280;33253;42.144;25.884;2023-02-12T05:49:37;101621.81;;;-2.85;76.34
47524;BME280;33253;42.144;25.884;2023-02-12T05:52:03;101632.41;;;-2.81;76.16
47524;BME280;33253;42.144;25.884;2023-02-12T05:54:28;101633.47;;;-2.79;75.85
47524;BME280;33253;42.144;25.884;2023-02-12T05:56:53;101630.13;;;-2.86;76.19
47524;BME280;33253;42.144;25.884;2023-02-12T05:59:21;101551.34;;;-3.37;76.45
47524;BME280;33253;42.144;25.884;2023-02-12T06:01:48;101640.03;;;-2.88;76.51
47524;BME280;33253;42.144;25.884;2023-02-12T06:04:21;101646.34;;;-2.84;77.07
47524;BME280;33253;42.144;25.884;2023-02-12T06:06:48;101651.56;;;-2.83;76.98
47524;BME280;33253;42.144;25.884;2023-02-12T06:09:14;101662.88;;;-2.79;76.83
47524;BME280;33253;42.144;25.884;2023-02-12T06:11:40;101665.88;;;-2.67;76.91
47524;BME280;33253;42.144;25.884;2023-02-12T06:14:07;101676.16;;;-2.66;76.61
47524;BME280;33253;42.144;25.884;2023-02-12T06:16:34;101654.03;;;-2.76;77.05
47524;BME280;33253;42.144;25.884;2023-02-12T06:19:01;101647.31;;;-2.91;78.04
47524;BME280;33253;42.144;25.884;2023-02-12T06:21:28;101656.28;;;-2.86;78.88
47524;BME280;33253;42.144;25.884;2023-02-12T06:23:54;101657.53;;;-2.82;79.13
47524;BME280;33253;42.144;25.884;2023-02-12T06:26:20;101655.50;;;-2.78;79.12
47524;BME280;33253;42.144;25.884;2023-02-12T06:28:46;101658.13;;;-2.69;78.99
47524;BME280;33253;42.144;25.884;2023-02-12T06:31:27;101657.00;;;-2.64;78.50
47524;BME280;33253;42.144;25.884;2023-02-12T06:33:54;101658.28;;;-2.67;78.56
47524;BME280;33253;42.144;25.884;2023-02-12T06:36:20;101665.97;;;-2.58;78.70
47524;BME280;33253;42.144;25.884;2023-02-12T06:38:47;101661.66;;;-2.60;79.34
47524;BME280;33253;42.144;25.884;2023-02-12T06:41:13;101617.91;;;-2.74;79.44
47524;BME280;33253;42.144;25.884;2023-02-12T06:43:39;101668.03;;;-2.47;79.81
47524;BME280;33253;42.144;25.884;2023-02-12T06:46:05;101671.81;;;-2.44;79.48
47524;BME280;33253;42.144;25.884;2023-02-12T06:48:32;101670.34;;;-2.41;78.85
47524;BME280;33253;42.144;25.884;2023-02-12T06:51:10;101667.41;;;-2.37;80.02
47524;BME280;33253;42.144;25.884;2023-02-12T06:53:37;101678.03;;;-2.33;80.18
47524;BME280;33253;42.144;25.884;2023-02-12T06:56:04;101678.59;;;-2.35;80.18
47524;BME280;33253;42.144;25.884;2023-02-12T06:58:31;101682.06;;;-2.42;80.69
47524;BME280;33253;42.144;25.884;2023-02-12T07:00:56;101688.03;;;-2.41;80.56
47524;BME280;33253;42.144;25.884;2023-02-12T07:03:22;101692.38;;;-2.40;79.92
47524;BME280;33253;42.144;25.884;2023-02-12T07:05:47;101691.16;;;-2.44;80.00
47524;BME280;33253;42.144;25.884;2023-02-12T07:08:13;101693.19;;;-2.33;80.33
47524;BME280;33253;42.144;25.884;2023-02-12T07:10:39;101683.19;;;-2.24;79.08
47524;BME280;33253;42.144;25.884;2023-02-12T07:13:04;101696.19;;;-2.28;78.28
47524;BME280;33253;42.144;25.884;2023-02-12T07:15:30;101701.13;;;-2.14;77.98
47524;BME280;33253;42.144;25.884;2023-02-12T07:17:57;101656.16;;;-2.32;78.64
47524;BME280;33253;42.144;25.884;2023-02-12T07:20:22;101709.53;;;-2.06;78.22
47524;BME280;33253;42.144;25.884;2023-02-12T07:22:47;101706.19;;;-2.14;78.44
47524;BME280;33253;42.144;25.884;2023-02-12T07:25:13;101703.25;;;-2.09;78.72
47524;BME280;33253;42.144;25.884;2023-02-12T07:27:38;101644.88;;;-2.27;78.16
47524;BME280;33253;42.144;25.884;2023-02-12T07:30:05;101700.72;;;-1.93;78.57
47524;BME280;33253;42.144;25.884;2023-02-12T07:32:33;101688.88;;;-1.86;77.79
47524;BME280;33253;42.144;25.884;2023-02-12T07:34:59;101685.13;;;-1.73;76.90
47524;BME280;33253;42.144;25.884;2023-02-12T07:37:24;101695.66;;;-1.61;77.63
47524;BME280;33253;42.144;25.884;2023-02-12T07:39:49;101642.94;;;-1.82;78.33
47524;BME280;33253;42.144;25.884;2023-02-12T07:42:15;101677.28;;;-1.52;78.13
47524;BME280;33253;42.144;25.884;2023-02-12T07:44:42;101686.16;;;-1.39;77.51
47524;BME280;33253;42.144;25.884;2023-02-12T07:47:07;101681.88;;;-1.32;77.70
47524;BME280;33253;42.144;25.884;2023-02-12T07:49:32;101681.94;;;-1.23;78.23
47524;BME280;33253;42.144;25.884;2023-02-12T07:51:58;101693.13;;;-1.21;77.19
47524;BME280;33253;42.144;25.884;2023-02-12T07:54:23;101692.69;;;-1.17;77.60
47524;BME280;33253;42.144;25.884;2023-02-12T07:56:49;101697.44;;;-1.20;77.49
47524;BME280;33253;42.144;25.884;2023-02-12T07:59:16;101690.53;;;-1.29;76.94
47524;BME280;33253;42.144;25.884;2023-02-12T08:01:49;101694.53;;;-1.32;76.05
47524;BME280;33253;42.144;25.884;2023-02-12T08:04:18;101701.81;;;-1.35;76.42
47524;BME280;33253;42.144;25.884;2023-02-12T08:06:46;101702.31;;;-1.46;76.56
47524;BME280;33253;42.144;25.884;2023-02-12T08:09:15;101645.31;;;-1.83;77.27
47524;BME280;33253;42.144;25.884;2023-02-12T08:11:41;101705.28;;;-1.50;77.88
47524;BME280;33253;42.144;25.884;2023-02-12T08:14:10;101707.00;;;-1.58;76.92
47524;BME280;33253;42.144;25.884;2023-02-12T08:16:37;101704.78;;;-1.55;76.38
47524;BME280;33253;42.144;25.884;2023-02-12T08:19:03;101707.00;;;-1.42;76.35
47524;BME280;33253;42.144;25.884;2023-02-12T08:21:29;101716.47;;;-1.32;74.79
47524;BME280;33253;42.144;25.884;2023-02-12T08:23:56;101664.47;;;-1.53;73.94
47524;BME280;33253;42.144;25.884;2023-02-12T08:26:29;101701.69;;;-1.11;74.64
47524;BME280;33253;42.144;25.884;2023-02-12T08:28:59;101663.41;;;-1.31;72.98
47524;BME280;33253;42.144;25.884;2023-02-12T08:31:28;101707.53;;;-1.04;73.35
47524;BME280;33253;42.144;25.884;2023-02-12T08:33:54;101714.31;;;-0.95;72.90
47524;BME280;33253;42.144;25.884;2023-02-12T08:36:22;101723.03;;;-0.85;73.06
47524;BME280;33253;42.144;25.884;2023-02-12T08:38:49;101678.66;;;-0.97;71.69
47524;BME280;33253;42.144;25.884;2023-02-12T08:41:20;101722.66;;;-0.63;71.56
47524;BME280;33253;42.144;25.884;2023-02-12T08:43:46;101729.72;;;-0.52;70.71
47524;BME280;33253;42.144;25.884;2023-02-12T08:46:16;101721.53;;;-0.49;70.79
47524;BME280;33253;42.144;25.884;2023-02-12T08:48:42;101733.50;;;-0.39;69.50
47524;BME280;33253;42.144;25.884;2023-02-12T08:51:14;101730.25;;;-0.29;69.48
47524;BME280;33253;42.144;25.884;2023-02-12T08:53:41;101727.59;;;-0.22;69.06
47524;BME280;33253;42.144;25.884;2023-02-12T08:56:08;101718.78;;;-0.26;69.65
47524;BME280;33253;42.144;25.884;2023-02-12T08:58:37;101728.66;;;-0.11;69.47
47524;BME280;33253;42.144;25.884;2023-02-12T09:01:04;101652.91;;;-0.42;69.21
47524;BME280;33253;42.144;25.884;2023-02-12T09:03:33;101692.84;;;-0.06;68.87
47524;BME280;33253;42.144;25.884;2023-02-12T09:06:04;101743.69;;;0.29;68.42
47524;BME280;33253;42.144;25.884;2023-02-12T09:08:31;101722.75;;;0.32;68.64
47524;BME280;33253;42.144;25.884;2023-02-12T09:10:57;101728.44;;;0.47;68.97
47524;BME280;33253;42.144;25.884;2023-02-12T09:13:23;101717.69;;;0.50;68.20
47524;BME280;33253;42.144;25.884;2023-02-12T09:15:48;101726.22;;;0.59;67.38
47524;BME280;33253;42.144;25.884;2023-02-12T09:18:14;101726.63;;;0.72;66.27
47524;BME280;33253;42.144;25.884;2023-02-12T09:20:42;101686.59;;;0.52;65.48
47524;BME280;33253;42.144;25.884;2023-02-12T09:23:13;101722.31;;;0.89;65.34
47524;BME280;33253;42.144;25.884;2023-02-12T09:25:43;101703.59;;;0.88;65.24
47524;BME280;33253;42.144;25.884;2023-02-12T09:28:09;101728.34;;;1.17;63.16
47524;BME280;33253;42.144;25.884;2023-02-12T09:30:36;101736.13;;;1.27;64.17
47524;BME280;33253;42.144;25.884;2023-02-12T09:33:02;101739.41;;;1.35;63.72
47524;BME280;33253;42.144;25.884;2023-02-12T09:35:27;101740.25;;;1.44;62.77
47524;BME280;33253;42.144;25.884;2023-02-12T09:37:53;101732.88;;;1.56;62.26
47524;BME280;33253;42.144;25.884;2023-02-12T09:40:21;101734.16;;;1.70;62.66
47524;BME280;33253;42.144;25.884;2023-02-12T09:43:15;101733.97;;;1.77;60.37
47524;BME280;33253;42.144;25.884;2023-02-12T09:51:39;101718.34;;;2.11;59.28
47524;BME280;33253;42.144;25.884;2023-02-12T09:54:17;101732.91;;;2.31;59.21
47524;BME280;33253;42.144;25.884;2023-02-12T09:56:46;101721.75;;;2.39;59.08
47524;BME280;33253;42.144;25.884;2023-02-12T09:59:33;101732.00;;;2.50;58.63
47524;BME280;33253;42.144;25.884;2023-02-12T10:01:59;101723.13;;;2.55;59.24
47524;BME280;33253;42.144;25.884;2023-02-12T10:04:26;101720.50;;;2.64;59.27
47524;BME280;33253;42.144;25.884;2023-02-12T10:12:28;101709.28;;;2.91;58.60
47524;BME280;33253;42.144;25.884;2023-02-12T10:25:48;101705.59;;;3.27;55.29
47524;BME280;33253;42.144;25.884;2023-02-12T10:28:40;101707.09;;;3.25;52.56
47524;BME280;33253;42.144;25.884;2023-02-12T10:31:10;101704.31;;;3.32;51.72
47524;BME280;33253;42.144;25.884;2023-02-12T10:33:42;101702.19;;;3.37;52.69
47524;BME280;33253;42.144;25.884;2023-02-12T10:39:05;101695.47;;;3.58;51.85
47524;BME280;33253;42.144;25.884;2023-02-12T10:42:02;101697.91;;;3.67;51.60
47524;BME280;33253;42.144;25.884;2023-02-12T10:44:30;101691.16;;;3.78;50.23
47524;BME280;33253;42.144;25.884;2023-02-12T10:46:56;101686.16;;;3.89;50.07
47524;BME280;33253;42.144;25.884;2023-02-12T10:49:21;101687.56;;;3.96;50.92
47524;BME280;33253;42.144;25.884;2023-02-12T10:51:52;101697.78;;;4.07;49.72
47524;BME280;33253;42.144;25.884;2023-02-12T10:57:16;101705.81;;;4.21;48.57
47524;BME280;33253;42.144;25.884;2023-02-12T10:59:43;101696.47;;;4.22;48.93
47524;BME280;33253;42.144;25.884;2023-02-12T11:02:23;101708.78;;;4.26;48.31
47524;BME280;33253;42.144;25.884;2023-02-12T11:04:49;101710.03;;;4.31;47.67
47524;BME280;33253;42.144;25.884;2023-02-12T11:07:16;101706.44;;;4.40;47.87
47524;BME280;33253;42.144;25.884;2023-02-12T11:09:44;101708.06;;;4.49;47.48
47524;BME280;33253;42.144;25.884;2023-02-12T11:12:32;101716.50;;;4.48;48.20
47524;BME280;33253;42.144;25.884;2023-02-12T11:15:02;101713.84;;;4.47;48.56
47524;BME280;33253;42.144;25.884;2023-02-12T11:17:39;101716.25;;;4.56;47.30
47524;BME280;33253;42.144;25.884;2023-02-12T11:25:23;101710.44;;;4.79;47.18
47524;BME280;33253;42.144;25.884;2023-02-12T11:28:00;101712.41;;;4.93;49.35
47524;BME280;33253;42.144;25.884;2023-02-12T11:30:26;101711.13;;;4.98;47.91
47524;BME280;33253;42.144;25.884;2023-02-12T11:32:51;101705.53;;;4.92;47.38
47524;BME280;33253;42.144;25.884;2023-02-12T11:35:20;101707.56;;;4.96;47.79
47524;BME280;33253;42.144;25.884;2023-02-12T11:37:50;101706.78;;;4.97;47.05
47524;BME280;33253;42.144;25.884;2023-02-12T11:40:29;101705.50;;;5.02;46.49
47524;BME280;33253;42.144;25.884;2023-02-12T11:43:06;101702.66;;;4.99;46.76
47524;BME280;33253;42.144;25.884;2023-02-12T11:45:41;101705.97;;;5.09;47.66
47524;BME280;33253;42.144;25.884;2023-02-12T11:48:29;101703.72;;;5.24;45.83
47524;BME280;33253;42.144;25.884;2023-02-12T11:50:58;101670.44;;;5.01;46.15
47524;BME280;33253;42.144;25.884;2023-02-12T11:53:29;101694.72;;;5.29;46.83
47524;BME280;33253;42.144;25.884;2023-02-12T11:56:02;101704.44;;;5.55;47.48
47524;BME280;33253;42.144;25.884;2023-02-12T11:58:29;101695.03;;;5.66;45.60
47524;BME280;33253;42.144;25.884;2023-02-12T12:01:03;101665.88;;;5.76;45.33
47524;BME280;33253;42.144;25.884;2023-02-12T12:06:05;101706.09;;;6.11;46.09
47524;BME280;33253;42.144;25.884;2023-02-12T12:08:39;101708.38;;;6.18;46.72
47524;BME280;33253;42.144;25.884;2023-02-12T12:16:46;101706.38;;;6.26;46.60
47524;BME280;33253;42.144;25.884;2023-02-12T12:19:55;101703.34;;;6.31;46.49
47524;BME280;33253;42.144;25.884;2023-02-12T12:22:26;101707.47;;;6.41;47.15
47524;BME280;33253;42.144;25.884;2023-02-12T12:25:15;101709.94;;;6.40;46.82
47524;BME280;33253;42.144;25.884;2023-02-12T12:32:58;101709.97;;;6.75;46.18
47524;BME280;33253;42.144;25.884;2023-02-12T12:35:42;101717.53;;;6.86;45.80
47524;BME280;33253;42.144;25.884;2023-02-12T12:38:36;101719.19;;;6.97;46.36
47524;BME280;33253;42.144;25.884;2023-02-12T12:41:14;101717.31;;;6.94;46.06
47524;BME280;33253;42.144;25.884;2023-02-12T12:49:33;101722.78;;;6.63;47.51
47524;BME280;33253;42.144;25.884;2023-02-12T12:55:06;101726.78;;;6.60;47.79
47524;BME280;33253;42.144;25.884;2023-02-12T13:10:59;101730.91;;;6.46;47.54
47524;BME280;33253;42.144;25.884;2023-02-12T13:13:38;101740.19;;;6.56;48.27
47524;BME280;33253;42.144;25.884;2023-02-12T13:19:35;101747.66;;;6.64;48.54
47524;BME280;33253;42.144;25.884;2023-02-12T13:27:36;101758.38;;;6.94;47.70
47524;BME280;33253;42.144;25.884;2023-02-12T13:35:34;101755.56;;;6.68;47.93
47524;BME280;33253;42.144;25.884;2023-02-12T13:38:02;101759.38;;;6.73;49.04
47524;BME280;33253;42.144;25.884;2023-02-12T13:40:30;101757.16;;;6.66;49.55
47524;BME280;33253;42.144;25.884;2023-02-12T13:43:10;101759.94;;;6.69;48.17
47524;BME280;33253;42.144;25.884;2023-02-12T13:45:54;101763.38;;;6.57;48.66
47524;BME280;33253;42.144;25.884;2023-02-12T13:53:44;101756.25;;;6.65;50.98
47524;BME280;33253;42.144;25.884;2023-02-12T13:58:53;101793.19;;;7.03;51.57
47524;BME280;33253;42.144;25.884;2023-02-12T14:01:39;101787.81;;;7.11;49.68
47524;BME280;33253;42.144;25.884;2023-02-12T14:14:39;101815.50;;;6.68;49.51
47524;BME280;33253;42.144;25.884;2023-02-12T14:35:46;101852.38;;;6.12;53.33
47524;BME280;33253;42.144;25.884;2023-02-12T14:40:43;101829.13;;;5.99;55.30
47524;BME280;33253;42.144;25.884;2023-02-12T14:43:35;101868.53;;;6.11;55.92
47524;BME280;33253;42.144;25.884;2023-02-12T14:48:56;101884.84;;;6.02;56.65
47524;BME280;33253;42.144;25.884;2023-02-12T14:51:41;101884.88;;;5.91;56.67
47524;BME280;33253;42.144;25.884;2023-02-12T14:54:19;101889.69;;;5.76;57.43
47524;BME280;33253;42.144;25.884;2023-02-12T14:56:48;101901.56;;;5.86;58.04
47524;BME280;33253;42.144;25.884;2023-02-12T14:59:18;101901.31;;;5.83;58.14
47524;BME280;33253;42.144;25.884;2023-02-12T15:01:45;101909.31;;;5.76;58.38
47524;BME280;33253;42.144;25.884;2023-02-12T15:04:33;101903.56;;;5.68;59.06
47524;BME280;33253;42.144;25.884;2023-02-12T15:07:10;101914.28;;;5.74;59.62
47524;BME280;33253;42.144;25.884;2023-02-12T15:09:43;101897.44;;;5.56;60.12
47524;BME280;33253;42.144;25.884;2023-02-12T15:12:19;101925.25;;;5.61;60.63
47524;BME280;33253;42.144;25.884;2023-02-12T15:15:00;101935.22;;;5.69;60.59
47524;BME280;33253;42.144;25.884;2023-02-12T15:17:31;101938.16;;;5.63;61.57
47524;BME280;33253;42.144;25.884;2023-02-12T15:22:50;101906.84;;;5.34;62.35
47524;BME280;33253;42.144;25.884;2023-02-12T15:25:36;101962.03;;;5.51;62.51
47524;BME280;33253;42.144;25.884;2023-02-12T15:28:24;101963.44;;;5.48;63.13
47524;BME280;33253;42.144;25.884;2023-02-12T15:30:52;101948.63;;;5.33;64.02
47524;BME280;33253;42.144;25.884;2023-02-12T15:33:26;101964.34;;;5.38;64.30
47524;BME280;33253;42.144;25.884;2023-02-12T15:35:52;101982.66;;;5.43;64.16
47524;BME280;33253;42.144;25.884;2023-02-12T15:38:21;101988.81;;;5.45;64.47
47524;BME280;33253;42.144;25.884;2023-02-12T15:40:54;101983.06;;;5.37;64.62
47524;BME280;33253;42.144;25.884;2023-02-12T15:43:20;101987.28;;;5.37;64.76
47524;BME280;33253;42.144;25.884;2023-02-12T15:45:50;101997.41;;;5.35;64.73
47524;BME280;33253;42.144;25.884;2023-02-12T15:48:23;102016.50;;;5.28;65.74